Duere, Brazil
Current Conditions -  °F | °C
As of 3:00 AM on Tuesday 21 Oct 2014 (Local Time) from SBPJ Reporting Station
Few Clouds Few Clouds  
Wind Chill: 79°   Ceiling: Unl
Heat Index: 81°   Visibility: 6mi
Dew Point: 68°   Wind: 3mph
Humidity: 69%   Direction: 320°NW
Pressure: 29.83"   Gusts: NA
Location:  11.34°S, 49.27°W
Report Text: SBPJ 210600Z 32003KT 9999 FEW030 26/20 Q1010
Loading
Personal Weather Stations






























Interactive Weather Map
Tropical Storm Tracking
New forecast layout! Learn more

10-Day Weather Forecast

Advertisements
Track Severe Weather on mobile